Back to Top

Language: 

My Weather Underground Personal Weather Station Historical Data with Graphs...

Delerius Weather Station Historical Data
Daily Summary for May 31, 2017 Units:  English    Metric   Both
« Previous Day
Next Day »
Daily Weekly Monthly Yearly Custom
  High: Low: Average:
Temperature: 73.8 °F 44.8 °F 60.9 °F
Dew Point: 56.7 °F 42.3 °F 49.7 °F
Humidity: 92 % 45 % 69 %
Wind Speed: 7.0 mph 0.0 mph 2.5 mph
Wind Gust: 14.0 mph - -
Wind:- - WSW
Pressure: 30.20 in 30.08 in -
Precipitation: 0.00 in    
Historical Graphs
 
 
Tabular Data for May 31, 2017
Time Temperature Dew Point Pressure Wind Wind Speed Wind Gust Humidity Rainfall Rate (Hourly) solar Conditions
00:04 51.4 °F 48.3 °F 30.09 in WNW 2.0 mph 6.0 mph 89 % 0.00 in 0 W/m2
00:09 51.1 °F 48.0 °F 30.09 in WNW 2.0 mph 6.0 mph 89 % 0.00 in 0 W/m2
00:14 50.7 °F 47.6 °F 30.08 in West 4.0 mph 7.0 mph 89 % 0.00 in 0 W/m2
00:19 50.5 °F 47.4 °F 30.08 in West 4.0 mph 7.0 mph 89 % 0.00 in 0 W/m2
00:24 50.4 °F 46.9 °F 30.09 in WNW 3.0 mph 7.0 mph 88 % 0.00 in 0 W/m2
00:29 50.0 °F 46.6 °F 30.09 in NW 3.0 mph 6.0 mph 88 % 0.00 in 0 W/m2
00:34 49.8 °F 46.4 °F 30.09 in NW 3.0 mph 7.0 mph 88 % 0.00 in 0 W/m2
00:39 49.8 °F 46.4 °F 30.09 in NW 3.0 mph 7.0 mph 88 % 0.00 in 0 W/m2
00:44 49.6 °F 46.2 °F 30.10 in NW 1.0 mph 5.0 mph 88 % 0.00 in 0 W/m2
00:49 49.5 °F 46.1 °F 30.10 in Calm   4.0 mph 88 % 0.00 in 0 W/m2
00:55 49.5 °F 46.1 °F 30.10 in Calm     88 % 0.00 in 0 W/m2
01:00 49.3 °F 45.9 °F 30.09 in Calm     88 % 0.00 in 0 W/m2
01:05 48.9 °F 45.5 °F 30.10 in Calm     88 % 0.00 in 0 W/m2
01:10 48.7 °F 45.3 °F 30.10 in Calm   2.0 mph 88 % 0.00 in 0 W/m2
01:15 48.6 °F 45.5 °F 30.10 in NW 2.0 mph 7.0 mph 89 % 0.00 in 0 W/m2
01:20 48.6 °F 45.2 °F 30.09 in NW 5.0 mph 9.0 mph 88 % 0.00 in 0 W/m2
01:25 48.9 °F 45.2 °F 30.09 in NW 6.0 mph 10.0 mph 87 % 0.00 in 0 W/m2
01:30 49.3 °F 45.3 °F 30.09 in NW 7.0 mph 10.0 mph 86 % 0.00 in 0 W/m2
01:35 49.5 °F 45.1 °F 30.10 in NW 6.0 mph 10.0 mph 85 % 0.00 in 0 W/m2
01:40 49.6 °F 45.3 °F 30.10 in NW 5.0 mph 10.0 mph 85 % 0.00 in 0 W/m2
01:45 49.8 °F 45.5 °F 30.10 in NW 3.0 mph 9.0 mph 85 % 0.00 in 0 W/m2
01:50 49.5 °F 45.1 °F 30.10 in West 2.0 mph 9.0 mph 85 % 0.00 in 0 W/m2
01:55 49.1 °F 45.1 °F 30.11 in ESE 1.0 mph 4.0 mph 86 % 0.00 in 0 W/m2
02:00 48.7 °F 44.7 °F 30.11 in ESE 1.0 mph 4.0 mph 86 % 0.00 in 0 W/m2
02:05 48.6 °F 44.9 °F 30.11 in ESE 1.0 mph 5.0 mph 87 % 0.00 in 0 W/m2
02:06 48.6 °F 44.9 °F 30.11 in ESE 1.0 mph 5.0 mph 87 % 0.00 in 0 W/m2
02:11 48.4 °F 44.7 °F 30.11 in ENE 1.0 mph 4.0 mph 87 % 0.00 in 0 W/m2
02:16 48.6 °F 44.9 °F 30.11 in WSW 2.0 mph 7.0 mph 87 % 0.00 in 0 W/m2
02:21 48.9 °F 44.9 °F 30.11 in WSW 4.0 mph 8.0 mph 86 % 0.00 in 0 W/m2
02:26 49.3 °F 45.0 °F 30.11 in West 3.0 mph 8.0 mph 85 % 0.00 in 0 W/m2
02:31 49.3 °F 44.6 °F 30.11 in WNW 2.0 mph 6.0 mph 84 % 0.00 in 0 W/m2
02:36 48.9 °F 44.3 °F 30.11 in WNW 1.0 mph 5.0 mph 84 % 0.00 in 0 W/m2
02:41 48.6 °F 44.3 °F 30.12 in WNW 1.0 mph 4.0 mph 85 % 0.00 in 0 W/m2
02:46 48.4 °F 44.1 °F 30.12 in NW 2.0 mph 6.0 mph 85 % 0.00 in 0 W/m2
02:51 48.2 °F 44.2 °F 30.11 in NW 4.0 mph 8.0 mph 86 % 0.00 in 0 W/m2
02:56 48.0 °F 44.0 °F 30.11 in WNW 6.0 mph 8.0 mph 86 % 0.00 in 0 W/m2
03:01 48.0 °F 44.0 °F 30.11 in WNW 6.0 mph 8.0 mph 86 % 0.00 in 0 W/m2
03:06 47.8 °F 43.9 °F 30.11 in WNW 5.0 mph 9.0 mph 86 % 0.00 in 0 W/m2
03:11 47.8 °F 43.9 °F 30.11 in NW 3.0 mph 9.0 mph 86 % 0.00 in 0 W/m2
03:16 47.8 °F 43.9 °F 30.11 in NNW 2.0 mph 6.0 mph 86 % 0.00 in 0 W/m2
03:21 47.7 °F 43.4 °F 30.12 in NNW 1.0 mph 6.0 mph 85 % 0.00 in 0 W/m2
03:27 47.7 °F 43.7 °F 30.12 in Calm   4.0 mph 86 % 0.00 in 0 W/m2
03:32 47.7 °F 43.7 °F 30.12 in Calm   2.0 mph 86 % 0.00 in 0 W/m2
03:37 47.5 °F 43.5 °F 30.12 in Calm   2.0 mph 86 % 0.00 in 0 W/m2
03:42 47.3 °F 43.3 °F 30.12 in Calm   1.0 mph 86 % 0.00 in 0 W/m2
03:47 47.1 °F 43.1 °F 30.13 in Calm     86 % 0.00 in 0 W/m2
03:52 46.8 °F 42.8 °F 30.13 in Calm     86 % 0.00 in 0 W/m2
03:57 46.6 °F 42.9 °F 30.13 in NNE 1.0 mph 4.0 mph 87 % 0.00 in 0 W/m2
04:02 46.4 °F 43.0 °F 30.13 in NNE 1.0 mph 4.0 mph 88 % 0.00 in 0 W/m2
04:07 46.2 °F 42.9 °F 30.13 in Calm   3.0 mph 88 % 0.00 in 0 W/m2
04:12 46.0 °F 43.0 °F 30.13 in Calm   2.0 mph 89 % 0.00 in 0 W/m2
04:17 45.9 °F 42.8 °F 30.13 in Calm   2.0 mph 89 % 0.00 in 0 W/m2
04:22 45.7 °F 42.9 °F 30.14 in Calm   2.0 mph 90 % 0.00 in 0 W/m2
04:27 45.5 °F 42.7 °F 30.14 in Calm     90 % 0.00 in 0 W/m2
04:32 45.3 °F 42.6 °F 30.14 in Calm   4.0 mph 90 % 0.00 in 0 W/m2
04:37 45.1 °F 42.4 °F 30.14 in Calm   4.0 mph 90 % 0.00 in 0 W/m2
04:42 45.1 °F 42.4 °F 30.14 in Calm   3.0 mph 90 % 0.00 in 5 W/m2
04:47 45.0 °F 42.5 °F 30.14 in Calm   3.0 mph 91 % 0.00 in 7 W/m2
04:52 45.0 °F 42.5 °F 30.14 in Calm   1.0 mph 91 % 0.00 in 9 W/m2
04:57 45.0 °F 42.5 °F 30.14 in Calm   1.0 mph 91 % 0.00 in 11 W/m2
05:02 45.0 °F 42.5 °F 30.15 in Calm   1.0 mph 91 % 0.00 in 14 W/m2
05:07 44.8 °F 42.3 °F 30.15 in Calm     91 % 0.00 in 16 W/m2
05:12 44.8 °F 42.3 °F 30.15 in Calm     91 % 0.00 in 19 W/m2
05:17 44.8 °F 42.6 °F 30.15 in Calm     92 % 0.00 in 21 W/m2
05:22 44.8 °F 42.6 °F 30.15 in Calm     92 % 0.00 in 25 W/m2
05:23 44.8 °F 42.6 °F 30.15 in Calm     92 % 0.00 in 25 W/m2
05:28 44.8 °F 42.6 °F 30.15 in Calm     92 % 0.00 in 26 W/m2
05:33 44.8 °F 42.6 °F 30.16 in Calm     92 % 0.00 in 28 W/m2
05:38 44.8 °F 42.6 °F 30.16 in Calm   2.0 mph 92 % 0.00 in 28 W/m2
05:43 44.8 °F 42.6 °F 30.15 in NW 2.0 mph 6.0 mph 92 % 0.00 in 28 W/m2
05:48 45.0 °F 42.8 °F 30.16 in NW 4.0 mph 6.0 mph 92 % 0.00 in 28 W/m2
05:53 45.1 °F 43.0 °F 30.16 in NW 4.0 mph 6.0 mph 92 % 0.00 in 30 W/m2
05:54 45.1 °F 43.0 °F 30.16 in NW 4.0 mph 6.0 mph 92 % 0.00 in 30 W/m2
06:04 45.9 °F 43.7 °F 30.16 in NW 1.0 mph 5.0 mph 92 % 0.00 in 91 W/m2
06:09 46.0 °F 43.8 °F 30.16 in Calm   2.0 mph 92 % 0.00 in 44 W/m2
06:14 46.2 °F 44.0 °F 30.16 in Calm   2.0 mph 92 % 0.00 in 30 W/m2
06:19 46.4 °F 43.9 °F 30.17 in Calm     91 % 0.00 in 35 W/m2
06:24 46.6 °F 44.1 °F 30.17 in Calm     91 % 0.00 in 33 W/m2
06:29 46.8 °F 44.3 °F 30.17 in Calm     91 % 0.00 in 39 W/m2
06:34 46.9 °F 44.4 °F 30.17 in Calm     91 % 0.00 in 47 W/m2
06:39 47.1 °F 44.6 °F 30.17 in Calm     91 % 0.00 in 40 W/m2
06:44 47.3 °F 44.8 °F 30.17 in Calm     91 % 0.00 in 49 W/m2
06:49 47.7 °F 45.5 °F 30.17 in Calm   1.0 mph 92 % 0.00 in 33 W/m2
06:54 48.0 °F 45.5 °F 30.18 in NW 1.0 mph 3.0 mph 91 % 0.00 in 37 W/m2
06:59 48.4 °F 45.9 °F 30.18 in NW 1.0 mph 3.0 mph 91 % 0.00 in 35 W/m2
07:04 48.7 °F 46.2 °F 30.18 in Calm   3.0 mph 91 % 0.00 in 39 W/m2
07:09 49.1 °F 46.6 °F 30.18 in Calm     91 % 0.00 in 40 W/m2
07:14 49.5 °F 46.9 °F 30.19 in Calm   4.0 mph 91 % 0.00 in 204 W/m2
07:19 50.4 °F 47.5 °F 30.19 in NW 1.0 mph 4.0 mph 90 % 0.00 in 287 W/m2
07:24 51.4 °F 48.6 °F 30.19 in NW 1.0 mph 4.0 mph 90 % 0.00 in 302 W/m2
07:29 52.5 °F 48.8 °F 30.18 in Calm   4.0 mph 87 % 0.00 in 309 W/m2
07:34 53.4 °F 49.0 °F 30.18 in Calm   3.0 mph 85 % 0.00 in 302 W/m2
07:39 54.3 °F 49.3 °F 30.19 in NW 1.0 mph 4.0 mph 83 % 0.00 in 320 W/m2
07:44 55.0 °F 49.6 °F 30.19 in NW 1.0 mph 4.0 mph 82 % 0.00 in 341 W/m2
07:49 55.8 °F 49.3 °F 30.19 in NW 1.0 mph 4.0 mph 79 % 0.00 in 378 W/m2
07:54 56.1 °F 49.4 °F 30.19 in NW 1.0 mph 4.0 mph 78 % 0.00 in 392 W/m2
07:59 57.0 °F 49.2 °F 30.19 in NW 1.0 mph 4.0 mph 75 % 0.00 in 406 W/m2
08:04 57.6 °F 49.0 °F 30.19 in WNW 2.0 mph 5.0 mph 73 % 0.00 in 432 W/m2
08:09 57.4 °F 48.4 °F 30.19 in WNW 2.0 mph 5.0 mph 72 % 0.00 in 439 W/m2
08:14 57.6 °F 48.2 °F 30.20 in West 1.0 mph 5.0 mph 71 % 0.00 in 438 W/m2
08:20 58.3 °F 49.3 °F 30.20 in West 1.0 mph 5.0 mph 72 % 0.00 in 438 W/m2
08:25 59.5 °F 49.0 °F 30.20 in NW 2.0 mph 6.0 mph 68 % 0.00 in 436 W/m2
08:30 60.3 °F 48.9 °F 30.19 in NW 2.0 mph 6.0 mph 66 % 0.00 in 512 W/m2
08:35 60.8 °F 49.0 °F 30.19 in WNW 1.0 mph 6.0 mph 65 % 0.00 in 531 W/m2
08:40 61.3 °F 48.6 °F 30.19 in WNW 1.0 mph 6.0 mph 63 % 0.00 in 533 W/m2
08:45 62.2 °F 48.6 °F 30.20 in Calm   2.0 mph 61 % 0.00 in 529 W/m2
08:50 62.8 °F 48.7 °F 30.20 in NW 2.0 mph 6.0 mph 60 % 0.00 in 568 W/m2
08:55 62.2 °F 48.6 °F 30.20 in WNW 3.0 mph 6.0 mph 61 % 0.00 in 550 W/m2
09:00 61.5 °F 47.9 °F 30.20 in West 3.0 mph 7.0 mph 61 % 0.00 in 564 W/m2
09:05 61.3 °F 48.6 °F 30.19 in West 2.0 mph 7.0 mph 63 % 0.00 in 529 W/m2
09:10 62.1 °F 49.3 °F 30.19 in NNW 1.0 mph 6.0 mph 63 % 0.00 in 582 W/m2
09:15 62.2 °F 48.6 °F 30.20 in North 2.0 mph 7.0 mph 61 % 0.00 in 606 W/m2
09:20 62.4 °F 49.7 °F 30.20 in North 2.0 mph 7.0 mph 63 % 0.00 in 636 W/m2
09:25 62.4 °F 49.2 °F 30.20 in WNW 2.0 mph 6.0 mph 62 % 0.00 in 603 W/m2
09:30 63.0 °F 49.3 °F 30.19 in West 2.0 mph 7.0 mph 61 % 0.00 in 606 W/m2
09:35 63.5 °F 48.9 °F 30.19 in West 1.0 mph 7.0 mph 59 % 0.00 in 670 W/m2
09:40 63.5 °F 49.4 °F 30.19 in WSW 2.0 mph 6.0 mph 60 % 0.00 in 642 W/m2
09:45 63.5 °F 49.8 °F 30.19 in WSW 2.0 mph 6.0 mph 61 % 0.00 in 527 W/m2
09:50 63.1 °F 49.5 °F 30.19 in West 2.0 mph 6.0 mph 61 % 0.00 in 664 W/m2
09:55 63.1 °F 49.5 °F 30.19 in WNW 3.0 mph 8.0 mph 61 % 0.00 in 693 W/m2
10:00 63.7 °F 50.0 °F 30.19 in NW 3.0 mph 8.0 mph 61 % 0.00 in 763 W/m2
10:05 63.7 °F 49.1 °F 30.19 in North 3.0 mph 7.0 mph 59 % 0.00 in 661 W/m2
10:10 63.9 °F 48.8 °F 30.19 in NNW 2.0 mph 7.0 mph 58 % 0.00 in 710 W/m2
10:15 63.9 °F 49.2 °F 30.19 in West 3.0 mph 8.0 mph 59 % 0.00 in 673 W/m2
10:20 64.0 °F 49.4 °F 30.19 in West 3.0 mph 8.0 mph 59 % 0.00 in 791 W/m2
10:25 64.6 °F 49.0 °F 30.19 in West 2.0 mph 7.0 mph 57 % 0.00 in 844 W/m2
10:30 64.6 °F 49.0 °F 30.19 in NW 1.0 mph 6.0 mph 57 % 0.00 in 793 W/m2
10:35 64.6 °F 48.5 °F 30.19 in North 2.0 mph 6.0 mph 56 % 0.00 in 740 W/m2
10:40 64.8 °F 49.2 °F 30.19 in NNW 2.0 mph 5.0 mph 57 % 0.00 in 877 W/m2
10:45 64.8 °F 48.7 °F 30.19 in West 1.0 mph 5.0 mph 56 % 0.00 in 823 W/m2
10:50 64.9 °F 49.3 °F 30.19 in WNW 1.0 mph 6.0 mph 57 % 0.00 in 758 W/m2
10:52 65.1 °F 49.0 °F 30.19 in NW 1.0 mph 6.0 mph 56 % 0.00 in 782 W/m2
10:57 65.5 °F 48.9 °F 30.19 in SW 2.0 mph 7.0 mph 55 % 0.00 in 872 W/m2
11:02 64.8 °F 48.7 °F 30.19 in SSW 3.0 mph 8.0 mph 56 % 0.00 in 939 W/m2
11:07 64.6 °F 49.9 °F 30.19 in SSW 3.0 mph 8.0 mph 59 % 0.00 in 830 W/m2
11:12 64.6 °F 49.0 °F 30.19 in South 3.0 mph 8.0 mph 57 % 0.00 in 851 W/m2
11:17 64.6 °F 48.5 °F 30.18 in South 3.0 mph 8.0 mph 56 % 0.00 in 805 W/m2
11:22 64.9 °F 49.3 °F 30.18 in SE 2.0 mph 6.0 mph 57 % 0.00 in 842 W/m2
11:27 65.3 °F 49.2 °F 30.18 in ESE 2.0 mph 6.0 mph 56 % 0.00 in 459 W/m2
11:32 65.3 °F 49.7 °F 30.18 in SSW 2.0 mph 6.0 mph 57 % 0.00 in 355 W/m2
11:37 65.7 °F 50.0 °F 30.18 in WSW 3.0 mph 6.0 mph 57 % 0.00 in 926 W/m2
11:42 65.8 °F 48.7 °F 30.18 in WNW 3.0 mph 6.0 mph 54 % 0.00 in 926 W/m2
11:47 65.7 °F 49.5 °F 30.18 in WSW 3.0 mph 9.0 mph 56 % 0.00 in 849 W/m2
11:52 65.7 °F 49.5 °F 30.18 in SW 4.0 mph 9.0 mph 56 % 0.00 in 893 W/m2
11:57 65.5 °F 48.9 °F 30.18 in South 3.0 mph 6.0 mph 55 % 0.00 in 729 W/m2
12:02 65.5 °F 48.9 °F 30.18 in NNE 2.0 mph 5.0 mph 55 % 0.00 in 413 W/m2
12:07 65.8 °F 49.2 °F 30.18 in NW 1.0 mph 4.0 mph 55 % 0.00 in 856 W/m2
12:12 65.8 °F 48.2 °F 30.18 in WSW 1.0 mph 4.0 mph 53 % 0.00 in 729 W/m2
12:17 66.4 °F 50.2 °F 30.18 in Calm   4.0 mph 56 % 0.00 in 768 W/m2
12:22 66.6 °F 49.9 °F 30.18 in SSW 1.0 mph 6.0 mph 55 % 0.00 in 703 W/m2
12:27 66.6 °F 49.4 °F 30.18 in SW 2.0 mph 6.0 mph 54 % 0.00 in 684 W/m2
12:32 66.9 °F 49.7 °F 30.18 in West 1.0 mph 6.0 mph 54 % 0.00 in 670 W/m2
12:37 67.1 °F 49.9 °F 30.18 in South 3.0 mph 7.0 mph 54 % 0.00 in 615 W/m2
12:42 67.3 °F 49.0 °F 30.18 in SE 4.0 mph 8.0 mph 52 % 0.00 in 603 W/m2
12:47 67.5 °F 48.7 °F 30.18 in SE 3.0 mph 8.0 mph 51 % 0.00 in 661 W/m2
12:52 67.5 °F 48.7 °F 30.18 in SSE 1.0 mph 5.0 mph 51 % 0.00 in 677 W/m2
12:57 67.6 °F 49.4 °F 30.18 in West 2.0 mph 6.0 mph 52 % 0.00 in 779 W/m2
13:02 68.2 °F 49.4 °F 30.18 in WNW 3.0 mph 6.0 mph 51 % 0.00 in 837 W/m2
13:07 68.5 °F 49.7 °F 30.18 in West 2.0 mph 6.0 mph 51 % 0.00 in 737 W/m2
13:12 68.7 °F 48.8 °F 30.18 in SW 3.0 mph 10.0 mph 49 % 0.00 in 722 W/m2
13:17 68.5 °F 48.1 °F 30.18 in SSW 2.0 mph 10.0 mph 48 % 0.00 in 984 W/m2
13:22 68.9 °F 49.5 °F 30.18 in South 4.0 mph 11.0 mph 50 % 0.00 in 979 W/m2
13:27 68.9 °F 50.0 °F 30.17 in South 6.0 mph 11.0 mph 51 % 0.00 in 1004 W/m2
13:32 69.1 °F 50.2 °F 30.18 in South 6.0 mph 11.0 mph 51 % 0.00 in 1114 W/m2
13:37 69.3 °F 50.4 °F 30.18 in South 7.0 mph 12.0 mph 51 % 0.00 in 332 W/m2
13:42 69.1 °F 49.7 °F 30.17 in SSW 6.0 mph 12.0 mph 50 % 0.00 in 531 W/m2
13:47 68.9 °F 50.5 °F 30.17 in SSW 5.0 mph 9.0 mph 52 % 0.00 in 1104 W/m2
13:52 69.1 °F 50.7 °F 30.17 in South 5.0 mph 10.0 mph 52 % 0.00 in 1007 W/m2
13:57 69.3 °F 51.4 °F 30.17 in SSW 6.0 mph 10.0 mph 53 % 0.00 in 1004 W/m2
14:02 69.6 °F 50.2 °F 30.17 in SW 6.0 mph 14.0 mph 50 % 0.00 in 1035 W/m2
14:04 69.6 °F 50.2 °F 30.17 in SSW 6.0 mph 14.0 mph 50 % 0.00 in 1016 W/m2
14:09 70.0 °F 49.9 °F 30.17 in SW 6.0 mph 12.0 mph 49 % 0.00 in 997 W/m2
14:14 69.8 °F 49.8 °F 30.17 in SW 6.0 mph 12.0 mph 49 % 0.00 in 981 W/m2
14:19 69.8 °F 49.8 °F 30.17 in SSW 3.0 mph 10.0 mph 49 % 0.00 in 1060 W/m2
14:24 70.2 °F 50.1 °F 30.16 in SSW 3.0 mph 8.0 mph 49 % 0.00 in 1032 W/m2
14:29 70.7 °F 51.1 °F 30.17 in SW 5.0 mph 10.0 mph 50 % 0.00 in 250 W/m2
14:34 70.9 °F 50.2 °F 30.16 in WSW 5.0 mph 10.0 mph 48 % 0.00 in 1025 W/m2
14:39 70.7 °F 50.6 °F 30.16 in South 4.0 mph 8.0 mph 49 % 0.00 in 947 W/m2
14:44 70.9 °F 51.3 °F 30.16 in South 6.0 mph 12.0 mph 50 % 0.00 in 940 W/m2
14:49 71.2 °F 51.6 °F 30.16 in SSW 7.0 mph 12.0 mph 50 % 0.00 in 919 W/m2
14:54 71.6 °F 50.9 °F 30.16 in SW 5.0 mph 11.0 mph 48 % 0.00 in 930 W/m2
14:59 71.8 °F 51.0 °F 30.16 in SW 4.0 mph 10.0 mph 48 % 0.00 in 330 W/m2
15:04 71.2 °F 51.1 °F 30.16 in SSW 4.0 mph 10.0 mph 49 % 0.00 in 1007 W/m2
15:09 71.1 °F 50.4 °F 30.16 in SW 5.0 mph 11.0 mph 48 % 0.00 in 1007 W/m2
15:14 71.2 °F 51.1 °F 30.16 in SW 6.0 mph 11.0 mph 49 % 0.00 in 900 W/m2
15:19 71.4 °F 51.8 °F 30.15 in WSW 5.0 mph 10.0 mph 50 % 0.00 in 185 W/m2
15:24 71.8 °F 52.1 °F 30.15 in West 4.0 mph 8.0 mph 50 % 0.00 in 838 W/m2
15:29 72.0 °F 51.8 °F 30.15 in West 2.0 mph 7.0 mph 49 % 0.00 in 844 W/m2
15:34 71.8 °F 51.0 °F 30.15 in SW 3.0 mph 8.0 mph 48 % 0.00 in 265 W/m2
15:39 71.2 °F 50.5 °F 30.15 in SSW 4.0 mph 8.0 mph 48 % 0.00 in 831 W/m2
15:44 71.4 °F 51.8 °F 30.15 in South 3.0 mph 8.0 mph 50 % 0.00 in 812 W/m2
15:49 71.8 °F 51.0 °F 30.15 in SSW 5.0 mph 13.0 mph 48 % 0.00 in 772 W/m2
15:54 72.0 °F 51.2 °F 30.15 in SSW 5.0 mph 13.0 mph 48 % 0.00 in 749 W/m2
15:59 72.1 °F 51.4 °F 30.15 in SW 5.0 mph 10.0 mph 48 % 0.00 in 782 W/m2
16:04 72.9 °F 51.4 °F 30.15 in West 5.0 mph 10.0 mph 47 % 0.00 in 775 W/m2
16:09 73.6 °F 50.9 °F 30.15 in WNW 5.0 mph 11.0 mph 45 % 0.00 in 772 W/m2
16:14 73.8 °F 51.7 °F 30.14 in West 4.0 mph 11.0 mph 46 % 0.00 in 763 W/m2
16:15 73.6 °F 50.9 °F 30.14 in West 4.0 mph 9.0 mph 45 % 0.00 in 756 W/m2
16:20 73.2 °F 51.2 °F 30.14 in WSW 3.0 mph 9.0 mph 46 % 0.00 in 715 W/m2
16:25 73.4 °F 51.9 °F 30.14 in WNW 1.0 mph 5.0 mph 47 % 0.00 in 719 W/m2
16:30 73.6 °F 52.1 °F 30.13 in WNW 1.0 mph 5.0 mph 47 % 0.00 in 696 W/m2
16:35 73.6 °F 52.1 °F 30.14 in SSW 3.0 mph 13.0 mph 47 % 0.00 in 677 W/m2
16:40 73.0 °F 52.2 °F 30.13 in SSW 6.0 mph 13.0 mph 48 % 0.00 in 661 W/m2
16:45 72.7 °F 51.9 °F 30.14 in SSW 6.0 mph 11.0 mph 48 % 0.00 in 652 W/m2
16:50 72.5 °F 51.7 °F 30.14 in SSW 4.0 mph 9.0 mph 48 % 0.00 in 134 W/m2
16:55 72.0 °F 51.8 °F 30.13 in SW 4.0 mph 8.0 mph 49 % 0.00 in 158 W/m2
17:00 71.4 °F 51.8 °F 30.14 in SW 5.0 mph 10.0 mph 50 % 0.00 in 330 W/m2
17:06 71.2 °F 52.2 °F 30.13 in SW 5.0 mph 10.0 mph 51 % 0.00 in 176 W/m2
17:11 71.1 °F 52.0 °F 30.13 in SW 2.0 mph 7.0 mph 51 % 0.00 in 171 W/m2
17:16 71.2 °F 52.2 °F 30.13 in West 1.0 mph 4.0 mph 51 % 0.00 in 603 W/m2
17:21 71.8 °F 52.7 °F 30.13 in WSW 2.0 mph 5.0 mph 51 % 0.00 in 554 W/m2
17:26 72.0 °F 53.4 °F 30.13 in SSW 3.0 mph 7.0 mph 52 % 0.00 in 529 W/m2
17:31 72.0 °F 53.4 °F 30.13 in SSW 3.0 mph 7.0 mph 52 % 0.00 in 172 W/m2
17:36 71.6 °F 53.0 °F 30.13 in SW 5.0 mph 10.0 mph 52 % 0.00 in 165 W/m2
17:41 71.1 °F 53.6 °F 30.13 in SW 5.0 mph 10.0 mph 54 % 0.00 in 183 W/m2
17:46 70.7 °F 53.2 °F 30.13 in SW 5.0 mph 7.0 mph 54 % 0.00 in 137 W/m2
17:51 70.3 °F 53.4 °F 30.13 in SW 4.0 mph 6.0 mph 55 % 0.00 in 125 W/m2
17:56 70.2 °F 53.2 °F 30.13 in SW 5.0 mph 8.0 mph 55 % 0.00 in 148 W/m2
18:01 70.0 °F 53.6 °F 30.13 in SW 4.0 mph 8.0 mph 56 % 0.00 in 121 W/m2
18:06 70.0 °F 53.6 °F 30.13 in SW 3.0 mph 6.0 mph 56 % 0.00 in 95 W/m2
18:11 70.0 °F 53.6 °F 30.12 in SW 3.0 mph 6.0 mph 56 % 0.00 in 114 W/m2
18:16 69.8 °F 53.4 °F 30.12 in SW 3.0 mph 5.0 mph 56 % 0.00 in 139 W/m2
18:21 69.6 °F 52.7 °F 30.12 in SW 3.0 mph 5.0 mph 55 % 0.00 in 162 W/m2
18:26 69.8 °F 52.4 °F 30.12 in SW 2.0 mph 5.0 mph 54 % 0.00 in 149 W/m2
18:31 70.0 °F 53.1 °F 30.12 in SW 1.0 mph 4.0 mph 55 % 0.00 in 162 W/m2
18:36 70.2 °F 52.7 °F 30.13 in SW 1.0 mph 4.0 mph 54 % 0.00 in 156 W/m2
18:39 70.2 °F 53.2 °F 30.13 in SW 1.0 mph 8.0 mph 55 % 0.00 in 149 W/m2
18:44 70.2 °F 54.2 °F 30.13 in SW 4.0 mph 9.0 mph 57 % 0.00 in 95 W/m2
18:49 69.6 °F 53.7 °F 30.13 in SW 6.0 mph 9.0 mph 57 % 0.00 in 111 W/m2
18:54 69.4 °F 54.5 °F 30.13 in SW 6.0 mph 9.0 mph 59 % 0.00 in 167 W/m2
18:59 69.4 °F 54.5 °F 30.12 in SW 4.0 mph 8.0 mph 59 % 0.00 in 176 W/m2
19:05 69.3 °F 54.8 °F 30.12 in SW 4.0 mph 9.0 mph 60 % 0.00 in 132 W/m2
19:09 69.1 °F 54.6 °F 30.12 in SSW 5.0 mph 9.0 mph 60 % 0.00 in 125 W/m2
19:15 68.9 °F 54.4 °F 30.12 in SW 5.0 mph 8.0 mph 60 % 0.00 in 111 W/m2
19:20 68.7 °F 55.2 °F 30.12 in SW 5.0 mph 8.0 mph 62 % 0.00 in 111 W/m2
19:21 68.7 °F 55.2 °F 30.12 in SW 5.0 mph 8.0 mph 62 % 0.00 in 109 W/m2
19:26 68.5 °F 55.0 °F 30.12 in SW 4.0 mph 7.0 mph 62 % 0.00 in 84 W/m2
19:31 68.4 °F 55.3 °F 30.12 in SW 4.0 mph 7.0 mph 63 % 0.00 in 76 W/m2
19:36 68.2 °F 55.1 °F 30.12 in SW 4.0 mph 8.0 mph 63 % 0.00 in 67 W/m2
19:41 68.0 °F 55.4 °F 30.13 in SW 5.0 mph 8.0 mph 64 % 0.00 in 49 W/m2
19:46 67.8 °F 55.2 °F 30.12 in SW 4.0 mph 7.0 mph 64 % 0.00 in 39 W/m2
19:51 67.6 °F 55.5 °F 30.13 in SW 4.0 mph 8.0 mph 65 % 0.00 in 42 W/m2
19:56 67.6 °F 55.5 °F 30.12 in SW 5.0 mph 11.0 mph 65 % 0.00 in 42 W/m2
20:01 67.5 °F 55.3 °F 30.12 in SW 6.0 mph 11.0 mph 65 % 0.00 in 37 W/m2
20:06 67.3 °F 55.1 °F 30.13 in SW 6.0 mph 8.0 mph 65 % 0.00 in 28 W/m2
20:11 67.3 °F 55.5 °F 30.13 in SW 5.0 mph 8.0 mph 66 % 0.00 in 32 W/m2
20:16 67.1 °F 55.4 °F 30.12 in SW 4.0 mph 7.0 mph 66 % 0.00 in 37 W/m2
20:21 67.1 °F 55.4 °F 30.13 in SSW 4.0 mph 8.0 mph 66 % 0.00 in 39 W/m2
20:26 67.1 °F 54.9 °F 30.12 in SSW 5.0 mph 10.0 mph 65 % 0.00 in 37 W/m2
20:31 66.9 °F 55.2 °F 30.12 in SSW 4.0 mph 10.0 mph 66 % 0.00 in 37 W/m2
20:36 66.9 °F 55.2 °F 30.12 in SSW 3.0 mph 7.0 mph 66 % 0.00 in 33 W/m2
20:41 66.9 °F 55.2 °F 30.13 in SSW 1.0 mph 5.0 mph 66 % 0.00 in 25 W/m2
20:46 66.9 °F 54.8 °F 30.13 in South 2.0 mph 5.0 mph 65 % 0.00 in 18 W/m2
20:51 66.9 °F 54.8 °F 30.13 in South 4.0 mph 8.0 mph 65 % 0.00 in 12 W/m2
20:56 66.7 °F 54.6 °F 30.13 in SSE 4.0 mph 8.0 mph 65 % 0.00 in 9 W/m2
21:01 66.7 °F 55.0 °F 30.13 in SSE 3.0 mph 6.0 mph 66 % 0.00 in 7 W/m2
21:07 66.7 °F 55.0 °F 30.13 in South 2.0 mph 7.0 mph 66 % 0.00 in 5 W/m2
21:12 66.6 °F 55.3 °F 30.13 in SSW 3.0 mph 7.0 mph 67 % 0.00 in 0 W/m2
21:17 66.4 °F 55.1 °F 30.13 in SSW 3.0 mph 7.0 mph 67 % 0.00 in 0 W/m2
21:22 66.2 °F 55.3 °F 30.13 in SW 3.0 mph 7.0 mph 68 % 0.00 in 0 W/m2
21:27 66.0 °F 55.2 °F 30.13 in SW 2.0 mph 7.0 mph 68 % 0.00 in 0 W/m2
21:32 65.8 °F 55.4 °F 30.13 in SW 1.0 mph 4.0 mph 69 % 0.00 in 0 W/m2
21:37 65.8 °F 55.4 °F 30.14 in SW 1.0 mph 4.0 mph 69 % 0.00 in 0 W/m2
21:42 65.8 °F 55.8 °F 30.14 in SW 1.0 mph 5.0 mph 70 % 0.00 in 0 W/m2
21:47 65.7 °F 56.0 °F 30.14 in SW 1.0 mph 5.0 mph 71 % 0.00 in 0 W/m2
21:52 65.7 °F 56.0 °F 30.14 in SW 1.0 mph 5.0 mph 71 % 0.00 in 0 W/m2
21:57 65.5 °F 55.8 °F 30.14 in South 1.0 mph 7.0 mph 71 % 0.00 in 0 W/m2
22:02 65.3 °F 55.7 °F 30.14 in South 1.0 mph 7.0 mph 71 % 0.00 in 0 W/m2
22:07 65.1 °F 55.5 °F 30.14 in South 1.0 mph 5.0 mph 71 % 0.00 in 0 W/m2
22:12 65.1 °F 55.9 °F 30.13 in South 1.0 mph 5.0 mph 72 % 0.00 in 0 W/m2
22:17 65.1 °F 55.9 °F 30.14 in South 2.0 mph 6.0 mph 72 % 0.00 in 0 W/m2
22:22 65.1 °F 56.2 °F 30.14 in South 3.0 mph 6.0 mph 73 % 0.00 in 0 W/m2
22:27 65.1 °F 56.2 °F 30.14 in South 3.0 mph 6.0 mph 73 % 0.00 in 0 W/m2
22:32 65.1 °F 56.2 °F 30.14 in SSW 2.0 mph 6.0 mph 73 % 0.00 in 0 W/m2
22:37 65.1 °F 56.2 °F 30.14 in SSW 1.0 mph 4.0 mph 73 % 0.00 in 0 W/m2
22:42 64.9 °F 56.5 °F 30.14 in SSW 2.0 mph 6.0 mph 74 % 0.00 in 0 W/m2
22:47 64.8 °F 56.3 °F 30.14 in SSW 3.0 mph 7.0 mph 74 % 0.00 in 0 W/m2
22:52 64.8 °F 56.6 °F 30.14 in SSW 4.0 mph 7.0 mph 75 % 0.00 in 0 W/m2
22:58 64.6 °F 56.5 °F 30.14 in SSW 3.0 mph 6.0 mph 75 % 0.00 in 0 W/m2
23:03 64.6 °F 56.5 °F 30.14 in South 2.0 mph 6.0 mph 75 % 0.00 in 0 W/m2
23:08 64.6 °F 56.5 °F 30.14 in South 1.0 mph 4.0 mph 75 % 0.00 in 0 W/m2
23:13 64.6 °F 56.5 °F 30.13 in Calm   2.0 mph 75 % 0.00 in 0 W/m2
23:18 64.4 °F 56.3 °F 30.13 in Calm   1.0 mph 75 % 0.00 in 0 W/m2
23:23 64.6 °F 56.5 °F 30.13 in Calm     75 % 0.00 in 0 W/m2
23:28 64.4 °F 56.7 °F 30.13 in Calm     76 % 0.00 in 0 W/m2
23:33 64.4 °F 56.7 °F 30.13 in Calm     76 % 0.00 in 0 W/m2
23:38 64.2 °F 56.5 °F 30.13 in Calm     76 % 0.00 in 0 W/m2
23:43 64.2 °F 56.5 °F 30.13 in Calm   1.0 mph 76 % 0.00 in 0 W/m2
23:48 64.0 °F 56.7 °F 30.13 in Calm   1.0 mph 77 % 0.00 in 0 W/m2
23:53 64.0 °F 56.7 °F 30.13 in Calm     77 % 0.00 in 0 W/m2
23:58 63.9 °F 56.5 °F 30.13 in Calm     77 % 0.00 in 0 W/m2
Delerius-Weather
Compliments of Weather Underground - 2.25 mb

Data updates at regular intervals.